Arcoverde, Brazil
Current Conditions -  °F | °C
As of 5:00 AM on Thursday 29 Jan 2015 (Local Time) from SBKG Reporting Station
Clear Clear  
Wind Chill: 68°   Ceiling: Unl
Heat Index: 68°   Visibility: 6mi
Dew Point: 68°   Wind: 5mph
Humidity: 100%   Direction: 90°E
Pressure: 29.94"   Gusts: NA
Location:  8.42°S, 37.05°W
Report Text: SBKG 290800Z 09004KT CAVOK 20/20 Q1014
Loading
Personal Weather Stations






























Interactive Weather Map New forecast layout! Learn more

10-Day Weather Forecast

Advertisements
Track Severe Weather on mobile